createdAt,value
2023-01-30T00:00:10.157Z,7.30
2023-01-30T00:02:37.201Z,7.30
2023-01-30T00:05:04.707Z,7.20
2023-01-30T00:07:31.777Z,7.20
2023-01-30T00:09:58.888Z,7.20
2023-01-30T00:12:25.905Z,7.10
2023-01-30T00:14:54.775Z,7.10
2023-01-30T00:17:21.883Z,7.10
2023-01-30T00:19:48.930Z,7.00
2023-01-30T00:22:15.954Z,7.00
2023-01-30T00:24:42.910Z,7.00
2023-01-30T00:27:09.970Z,6.90
2023-01-30T00:29:36.986Z,6.90
2023-01-30T00:32:03.968Z,6.90
2023-01-30T00:34:30.953Z,6.90
2023-01-30T00:37:07.767Z,6.80
2023-01-30T00:39:35.577Z,6.80
2023-01-30T00:42:21.145Z,6.80
2023-01-30T00:45:06.656Z,6.80
2023-01-30T00:47:33.830Z,6.80
2023-01-30T00:50:00.840Z,6.80
2023-01-30T00:52:28.091Z,6.70
2023-01-30T00:54:55.072Z,6.80
2023-01-30T00:57:22.247Z,6.80
2023-01-30T00:59:49.757Z,6.80
2023-01-30T01:02:17.493Z,6.70
2023-01-30T01:04:44.687Z,6.70
2023-01-30T01:07:13.734Z,6.70
2023-01-30T01:09:41.814Z,6.70
2023-01-30T01:12:11.131Z,6.70
2023-01-30T01:14:38.148Z,6.70
2023-01-30T01:17:05.427Z,6.60
2023-01-30T01:19:32.664Z,6.70
2023-01-30T01:21:59.739Z,6.70
2023-01-30T01:24:27.890Z,6.60
2023-01-30T01:26:54.954Z,6.70
2023-01-30T01:29:22.125Z,6.70
2023-01-30T01:31:49.199Z,6.60
2023-01-30T01:34:16.191Z,6.70
2023-01-30T01:36:53.859Z,6.60
2023-01-30T01:39:21.879Z,6.60
2023-01-30T01:41:50.704Z,6.60
2023-01-30T01:44:17.730Z,6.50
2023-01-30T01:46:47.727Z,6.50
2023-01-30T01:49:25.163Z,6.50
2023-01-30T01:52:07.558Z,6.50
2023-01-30T01:54:39.087Z,6.40
2023-01-30T01:57:12.095Z,6.40
2023-01-30T02:00:04.398Z,6.40
2023-01-30T02:02:48.054Z,6.30
2023-01-30T02:05:17.969Z,6.30
2023-01-30T02:07:55.796Z,6.30
2023-01-30T02:10:48.930Z,6.20
2023-01-30T02:13:16.189Z,6.20
2023-01-30T02:15:43.879Z,6.10
2023-01-30T02:18:11.877Z,6.10
2023-01-30T02:21:03.390Z,6.10
2023-01-30T02:24:08.047Z,6.10
2023-01-30T02:27:01.135Z,6.10
2023-01-30T02:30:05.316Z,6.10
2023-01-30T02:32:45.565Z,6.10
2023-01-30T02:35:31.180Z,6.00
2023-01-30T02:38:12.173Z,6.10
2023-01-30T02:40:44.936Z,6.10
2023-01-30T02:43:31.581Z,6.10
2023-01-30T02:46:25.623Z,6.10
2023-01-30T02:49:19.266Z,6.10
2023-01-30T02:51:49.591Z,6.00
2023-01-30T02:54:17.173Z,6.00
2023-01-30T02:56:47.165Z,6.00
2023-01-30T02:59:19.573Z,6.00
2023-01-30T03:02:05.509Z,6.00
2023-01-30T03:04:35.879Z,6.00
2023-01-30T03:07:13.302Z,6.00
2023-01-30T03:10:17.811Z,6.10
2023-01-30T03:13:06.126Z,6.10
2023-01-30T03:15:42.138Z,6.10
2023-01-30T03:18:10.155Z,6.10
2023-01-30T03:20:40.085Z,6.20
2023-01-30T03:23:08.027Z,6.20
2023-01-30T03:25:39.466Z,6.20
2023-01-30T03:28:08.604Z,6.20
2023-01-30T03:30:35.697Z,6.20
2023-01-30T03:33:10.858Z,6.20
2023-01-30T03:35:40.238Z,6.10
2023-01-30T03:38:07.492Z,6.20
2023-01-30T03:40:35.561Z,6.20
2023-01-30T03:43:02.834Z,6.20
2023-01-30T03:45:30.557Z,6.20
2023-01-30T03:47:58.571Z,6.20
2023-01-30T03:50:25.627Z,6.30
2023-01-30T03:52:52.717Z,6.30
2023-01-30T03:55:21.525Z,6.30
2023-01-30T03:57:48.657Z,6.30
2023-01-30T04:00:18.613Z,6.40
2023-01-30T04:02:48.618Z,6.30
2023-01-30T04:05:18.610Z,6.30
2023-01-30T04:07:56.038Z,6.40
2023-01-30T04:10:24.235Z,6.40
2023-01-30T04:12:51.253Z,6.40
2023-01-30T04:15:19.950Z,6.40
2023-01-30T04:18:07.408Z,6.40
2023-01-30T04:21:00.504Z,6.40
2023-01-30T04:23:36.091Z,6.50
2023-01-30T04:26:04.428Z,6.40
2023-01-30T04:28:33.716Z,6.50
2023-01-30T04:31:01.110Z,6.50
2023-01-30T04:33:42.132Z,6.50
2023-01-30T04:36:11.260Z,6.50
2023-01-30T04:38:39.698Z,6.60
2023-01-30T04:41:07.607Z,6.60
2023-01-30T04:43:37.741Z,6.60
2023-01-30T04:46:10.903Z,6.60
2023-01-30T04:48:38.010Z,6.50
2023-01-30T04:51:05.223Z,6.60
2023-01-30T04:53:32.256Z,6.50
2023-01-30T04:55:59.414Z,6.50
2023-01-30T04:58:26.808Z,6.50
2023-01-30T05:00:54.416Z,6.50
2023-01-30T05:03:21.579Z,6.50
2023-01-30T05:05:49.060Z,6.50
2023-01-30T05:08:16.800Z,6.50
2023-01-30T05:10:43.741Z,6.50
2023-01-30T05:13:10.832Z,6.50
2023-01-30T05:15:39.358Z,6.60
2023-01-30T05:18:06.301Z,6.50
2023-01-30T05:20:33.279Z,6.60
2023-01-30T05:23:00.480Z,6.60
2023-01-30T05:25:27.502Z,6.60
2023-01-30T05:27:54.533Z,6.60
2023-01-30T05:30:21.611Z,6.60
2023-01-30T05:32:48.596Z,6.60
2023-01-30T05:37:43.808Z,6.50
2023-01-30T05:40:11.622Z,6.60
2023-01-30T05:42:38.592Z,6.50
2023-01-30T05:45:06.123Z,6.50
2023-01-30T05:47:33.131Z,6.50
2023-01-30T05:50:00.297Z,6.50
2023-01-30T05:52:27.245Z,6.50
2023-01-30T05:54:54.382Z,6.50
2023-01-30T05:57:21.531Z,6.50
2023-01-30T05:59:48.504Z,6.50
2023-01-30T06:02:15.498Z,6.50
2023-01-30T06:04:42.506Z,6.60
2023-01-30T06:07:09.517Z,6.60
2023-01-30T06:09:36.521Z,6.60
2023-01-30T06:12:03.635Z,6.60
2023-01-30T06:14:30.678Z,6.60
2023-01-30T06:16:57.883Z,6.60
2023-01-30T06:19:24.873Z,6.60
2023-01-30T06:21:51.847Z,6.60
2023-01-30T06:24:18.938Z,6.60
2023-01-30T06:26:45.918Z,6.60
2023-01-30T06:29:13.065Z,6.50
2023-01-30T06:31:40.109Z,6.60
2023-01-30T06:34:07.168Z,6.60
2023-01-30T06:36:34.192Z,6.60
2023-01-30T06:39:01.211Z,6.60
2023-01-30T06:41:28.193Z,6.60
2023-01-30T06:43:55.682Z,6.60
2023-01-30T06:46:22.907Z,6.60
2023-01-30T06:48:50.029Z,6.60
2023-01-30T06:51:17.046Z,6.50
2023-01-30T06:53:44.215Z,6.60
2023-01-30T06:56:11.289Z,6.60
2023-01-30T06:58:38.277Z,6.60
2023-01-30T07:01:08.005Z,6.50
2023-01-30T07:03:35.253Z,6.50
2023-01-30T07:06:04.338Z,6.50
2023-01-30T07:08:31.508Z,6.40
2023-01-30T07:10:58.455Z,6.40
2023-01-30T07:13:25.451Z,6.40
2023-01-30T07:15:52.444Z,6.30
2023-01-30T07:18:19.464Z,6.30
2023-01-30T07:20:50.001Z,6.30
2023-01-30T07:23:18.165Z,6.30
2023-01-30T07:25:45.303Z,6.20
2023-01-30T07:28:12.323Z,6.20
2023-01-30T07:30:39.534Z,6.20
2023-01-30T07:33:07.207Z,6.20
2023-01-30T07:35:36.523Z,6.20
2023-01-30T07:38:04.584Z,6.10
2023-01-30T07:40:31.770Z,6.10
2023-01-30T07:43:10.305Z,6.10
2023-01-30T07:45:45.448Z,6.10
2023-01-30T07:48:15.401Z,6.20
2023-01-30T07:50:44.063Z,6.10
2023-01-30T07:53:13.727Z,6.10
2023-01-30T07:55:41.273Z,6.10
2023-01-30T07:58:08.331Z,6.10
2023-01-30T08:00:35.491Z,6.10
2023-01-30T08:03:02.432Z,6.10
2023-01-30T08:05:29.464Z,6.10
2023-01-30T08:07:57.017Z,6.10
2023-01-30T08:10:24.782Z,6.10
2023-01-30T08:12:51.988Z,6.10
2023-01-30T08:15:21.219Z,6.10
2023-01-30T08:17:56.710Z,6.10
2023-01-30T08:20:24.826Z,6.10
2023-01-30T08:22:51.906Z,6.10
2023-01-30T08:25:19.477Z,6.10
2023-01-30T08:27:46.501Z,6.10
2023-01-30T08:30:13.734Z,6.10
2023-01-30T08:32:40.809Z,6.20
2023-01-30T08:35:08.787Z,6.20
2023-01-30T08:37:35.990Z,6.20
2023-01-30T08:40:03.026Z,6.20
2023-01-30T08:42:34.129Z,6.20
2023-01-30T08:45:01.903Z,6.30
2023-01-30T08:47:28.895Z,6.20
2023-01-30T08:49:55.876Z,6.30
2023-01-30T08:52:22.790Z,6.30
2023-01-30T08:54:49.745Z,6.30
2023-01-30T08:57:16.708Z,6.30
2023-01-30T08:59:43.719Z,6.30
2023-01-30T09:02:11.936Z,6.30
2023-01-30T09:04:39.062Z,6.30
2023-01-30T09:07:06.129Z,6.30
2023-01-30T09:09:33.181Z,6.30
2023-01-30T09:12:00.346Z,6.30
2023-01-30T09:14:27.390Z,6.30
2023-01-30T09:16:57.272Z,6.30
2023-01-30T09:19:26.976Z,6.30
2023-01-30T09:21:55.412Z,6.30
2023-01-30T09:24:26.839Z,6.30
2023-01-30T09:26:57.203Z,6.40
2023-01-30T09:29:24.994Z,6.30
2023-01-30T09:31:52.247Z,6.40
2023-01-30T09:34:19.416Z,6.40
2023-01-30T09:36:46.395Z,6.40
2023-01-30T09:39:13.335Z,6.40
2023-01-30T09:41:51.886Z,6.40
2023-01-30T09:44:48.524Z,6.40
2023-01-30T09:47:22.738Z,6.40
2023-01-30T09:50:08.061Z,6.50
2023-01-30T09:53:01.245Z,6.50
2023-01-30T09:55:30.062Z,6.50
2023-01-30T09:57:59.562Z,6.50
2023-01-30T10:00:45.583Z,6.50
2023-01-30T10:03:17.035Z,6.50
2023-01-30T10:05:54.437Z,6.50
2023-01-30T10:08:47.337Z,6.50
2023-01-30T10:12:02.677Z,6.50
2023-01-30T10:14:32.751Z,6.60
2023-01-30T10:17:37.398Z,6.60
2023-01-30T10:20:07.140Z,6.60
2023-01-30T10:23:06.246Z,6.60
2023-01-30T10:25:46.296Z,6.60
2023-01-30T10:28:28.100Z,6.60
2023-01-30T10:31:04.099Z,6.70
2023-01-30T10:33:36.945Z,6.70
2023-01-30T10:36:08.243Z,6.80
2023-01-30T10:38:45.914Z,6.80
2023-01-30T10:41:31.554Z,6.80
2023-01-30T10:44:06.645Z,6.90
2023-01-30T10:46:54.528Z,6.90
2023-01-30T10:49:48.668Z,7.00
2023-01-30T10:52:47.316Z,7.00
2023-01-30T10:55:38.553Z,7.00
2023-01-30T10:58:28.019Z,7.10
2023-01-30T11:01:07.578Z,7.20
2023-01-30T11:03:49.989Z,7.30
2023-01-30T11:06:26.642Z,7.40
2023-01-30T11:08:55.488Z,7.40
2023-01-30T11:11:42.738Z,7.50
2023-01-30T11:14:11.652Z,7.50
2023-01-30T11:16:58.577Z,7.50
2023-01-30T11:19:32.564Z,7.50
2023-01-30T11:22:05.493Z,7.60
2023-01-30T11:24:44.614Z,7.60
2023-01-30T11:27:29.394Z,7.60
2023-01-30T11:30:20.052Z,7.70
2023-01-30T11:32:49.556Z,7.80
2023-01-30T11:35:42.684Z,7.80
2023-01-30T11:38:54.304Z,7.90
2023-01-30T11:41:23.071Z,8.00
2023-01-30T11:43:50.690Z,8.00
2023-01-30T11:46:20.572Z,8.10
2023-01-30T11:49:45.428Z,8.20
2023-01-30T11:52:02.765Z,8.20
2023-01-30T11:54:38.050Z,8.30
2023-01-30T11:57:10.333Z,8.40
2023-01-30T11:59:47.893Z,8.40
2023-01-30T12:02:30.888Z,8.50
2023-01-30T12:05:06.785Z,8.50
2023-01-30T12:07:36.467Z,8.50
2023-01-30T12:10:30.574Z,8.60
2023-01-30T12:13:02.900Z,8.60
2023-01-30T12:15:35.346Z,8.60
2023-01-30T12:18:18.913Z,8.60
2023-01-30T12:21:04.062Z,8.60
2023-01-30T12:23:49.012Z,8.60
2023-01-30T12:26:31.463Z,8.60
2023-01-30T12:29:36.539Z,8.60
2023-01-30T12:34:35.356Z,8.60
2023-01-30T12:37:40.047Z,8.50
2023-01-30T12:40:23.167Z,8.50
2023-01-30T12:43:02.177Z,8.50
2023-01-30T12:45:39.240Z,8.50
2023-01-30T12:48:12.330Z,8.50
2023-01-30T12:51:09.002Z,8.50
2023-01-30T12:53:47.746Z,8.60
2023-01-30T12:56:27.509Z,8.60
2023-01-30T12:59:49.110Z,8.60
2023-01-30T13:02:34.310Z,8.70
2023-01-30T13:05:25.621Z,8.70
2023-01-30T13:08:11.347Z,8.70
2023-01-30T13:10:50.900Z,8.70
2023-01-30T13:13:42.451Z,8.70
2023-01-30T13:16:52.008Z,8.70
2023-01-30T13:19:41.208Z,8.60
2023-01-30T13:22:17.740Z,8.70
2023-01-30T13:25:08.397Z,8.70
2023-01-30T13:27:39.298Z,8.80
2023-01-30T13:30:10.587Z,8.80
2023-01-30T13:32:56.884Z,8.80
2023-01-30T13:35:31.730Z,8.80
2023-01-30T13:38:00.397Z,8.80
2023-01-30T13:40:42.829Z,8.80
2023-01-30T13:43:33.620Z,8.80
2023-01-30T13:46:10.327Z,8.80
2023-01-30T13:48:44.030Z,8.80
2023-01-30T13:51:36.856Z,8.80
2023-01-30T13:54:23.482Z,8.70
2023-01-30T13:56:59.384Z,8.70
2023-01-30T14:00:04.039Z,8.70
2023-01-30T14:02:58.693Z,8.60
2023-01-30T14:05:54.577Z,8.60
2023-01-30T14:08:43.474Z,8.60
2023-01-30T14:11:34.240Z,8.50
2023-01-30T14:14:20.083Z,8.50
2023-01-30T14:17:15.341Z,8.40
2023-01-30T14:19:57.479Z,8.40
2023-01-30T14:22:54.222Z,8.40
2023-01-30T14:25:30.239Z,8.30
2023-01-30T14:28:00.352Z,8.30
2023-01-30T14:30:45.777Z,8.30
2023-01-30T14:33:22.028Z,8.50
2023-01-30T14:36:01.176Z,8.30
2023-01-30T14:38:33.077Z,8.30
2023-01-30T14:41:00.099Z,8.30
2023-01-30T14:43:54.175Z,8.30
2023-01-30T14:46:21.418Z,8.30
2023-01-30T14:48:50.100Z,8.20
2023-01-30T14:51:39.087Z,8.20
2023-01-30T14:54:12.530Z,8.10
2023-01-30T14:56:49.483Z,8.10
2023-01-30T14:59:16.423Z,8.10
2023-01-30T15:02:14.587Z,8.00
2023-01-30T15:05:03.701Z,8.00
2023-01-30T15:07:39.281Z,8.00
2023-01-30T15:10:30.479Z,7.90
2023-01-30T15:13:42.268Z,7.90
2023-01-30T15:16:41.371Z,7.90
2023-01-30T15:19:30.286Z,7.90
2023-01-30T15:22:18.203Z,7.80
2023-01-30T15:25:16.139Z,7.80
2023-01-30T15:28:04.297Z,7.70
2023-01-30T15:30:57.302Z,7.70
2023-01-30T15:33:31.433Z,7.70
2023-01-30T15:36:00.160Z,7.60
2023-01-30T15:38:33.012Z,7.70
2023-01-30T15:41:05.433Z,7.70
2023-01-30T15:43:38.127Z,7.70
2023-01-30T15:46:05.043Z,7.70
2023-01-30T15:48:58.968Z,7.70
2023-01-30T15:51:29.375Z,7.80
2023-01-30T15:53:57.816Z,7.80
2023-01-30T15:56:26.116Z,7.80
2023-01-30T15:58:54.119Z,7.80
2023-01-30T16:01:22.994Z,7.80
2023-01-30T16:03:51.122Z,7.80
2023-01-30T16:06:23.763Z,7.80
2023-01-30T16:09:05.196Z,7.80
2023-01-30T16:11:38.071Z,7.90
2023-01-30T16:14:06.764Z,7.90
2023-01-30T16:16:36.055Z,7.90
2023-01-30T16:19:06.835Z,7.90
2023-01-30T16:21:46.435Z,7.90
2023-01-30T16:24:34.170Z,7.90
2023-01-30T16:27:04.761Z,7.90
2023-01-30T16:29:37.640Z,7.90
2023-01-30T16:32:13.143Z,7.90
2023-01-30T16:34:40.651Z,7.90
2023-01-30T16:37:27.657Z,7.90
2023-01-30T16:40:23.753Z,7.90
2023-01-30T16:43:01.948Z,7.90
2023-01-30T16:45:35.474Z,7.90
2023-01-30T16:48:18.463Z,7.90
2023-01-30T16:50:48.177Z,7.90
2023-01-30T16:53:24.623Z,7.90
2023-01-30T16:56:10.883Z,7.80
2023-01-30T16:58:38.727Z,7.80
2023-01-30T17:01:08.436Z,7.80
2023-01-30T17:03:42.092Z,7.80
2023-01-30T17:06:24.719Z,7.80
2023-01-30T17:08:54.195Z,7.80
2023-01-30T17:11:41.595Z,7.80
2023-01-30T17:14:14.787Z,7.80
2023-01-30T17:16:43.181Z,7.80
2023-01-30T17:19:10.324Z,7.80
2023-01-30T17:21:43.521Z,7.70
2023-01-30T17:24:16.472Z,7.70
2023-01-30T17:26:45.105Z,7.70
2023-01-30T17:29:23.318Z,7.70
2023-01-30T17:31:57.254Z,7.70
2023-01-30T17:34:25.553Z,7.70
2023-01-30T17:36:54.843Z,7.70
2023-01-30T17:39:26.049Z,7.70
2023-01-30T17:41:53.228Z,7.70
2023-01-30T17:44:20.143Z,7.70
2023-01-30T17:46:48.993Z,7.60
2023-01-30T17:49:21.786Z,7.60
2023-01-30T17:51:49.963Z,7.60
2023-01-30T17:54:17.167Z,7.50
2023-01-30T17:56:59.153Z,7.60
2023-01-30T17:59:26.659Z,7.50
2023-01-30T18:01:54.006Z,7.50
2023-01-30T18:04:21.385Z,7.50
2023-01-30T18:06:56.893Z,7.50
2023-01-30T18:09:25.181Z,7.40
2023-01-30T18:11:52.189Z,7.40
2023-01-30T18:14:19.410Z,7.40
2023-01-30T18:16:46.797Z,7.40
2023-01-30T18:19:16.099Z,7.40
2023-01-30T18:21:45.365Z,7.40
2023-01-30T18:24:13.410Z,7.40
2023-01-30T18:26:41.049Z,7.40
2023-01-30T18:29:12.139Z,7.40
2023-01-30T18:31:40.721Z,7.40
2023-01-30T18:34:08.006Z,7.40
2023-01-30T18:36:35.930Z,7.40
2023-01-30T18:39:04.427Z,7.40
2023-01-30T18:41:31.477Z,7.40
2023-01-30T18:44:00.541Z,7.40
2023-01-30T18:46:28.673Z,7.40
2023-01-30T18:48:56.578Z,7.40
2023-01-30T18:51:26.345Z,7.40
2023-01-30T18:53:54.844Z,7.40
2023-01-30T18:56:25.023Z,7.40
2023-01-30T18:58:53.453Z,7.40
2023-01-30T19:01:28.457Z,7.40
2023-01-30T19:03:57.050Z,7.40
2023-01-30T19:06:39.617Z,7.40
2023-01-30T19:09:07.732Z,7.40
2023-01-30T19:11:53.681Z,7.40
2023-01-30T19:14:20.757Z,7.40
2023-01-30T19:16:47.815Z,7.40
2023-01-30T19:19:14.833Z,7.40
2023-01-30T19:21:41.874Z,7.40
2023-01-30T19:24:13.570Z,7.30
2023-01-30T19:26:41.029Z,7.30
2023-01-30T19:29:08.706Z,7.40
2023-01-30T19:31:35.840Z,7.40
2023-01-30T19:34:06.261Z,7.30
2023-01-30T19:36:35.984Z,7.30
2023-01-30T19:39:05.957Z,7.30
2023-01-30T19:41:35.956Z,7.30
2023-01-30T19:44:06.468Z,7.20
2023-01-30T19:46:33.861Z,7.20
2023-01-30T19:49:00.878Z,7.20
2023-01-30T19:51:30.911Z,7.20
2023-01-30T19:54:00.177Z,7.20
2023-01-30T19:56:28.637Z,7.20
2023-01-30T19:58:58.454Z,7.20
2023-01-30T20:01:29.859Z,7.20
2023-01-30T20:04:02.322Z,7.20
2023-01-30T20:06:32.059Z,7.20
2023-01-30T20:09:07.186Z,7.20
2023-01-30T20:11:36.934Z,7.20
2023-01-30T20:14:07.071Z,7.20
2023-01-30T20:16:35.674Z,7.20
2023-01-30T20:19:16.452Z,7.20
2023-01-30T20:21:47.616Z,7.10
2023-01-30T20:24:16.087Z,7.20
2023-01-30T20:26:48.508Z,7.10
2023-01-30T20:29:17.667Z,7.20
2023-01-30T20:31:44.839Z,7.10
2023-01-30T20:34:13.967Z,7.20
2023-01-30T20:36:44.325Z,7.20
2023-01-30T20:39:11.589Z,7.10
2023-01-30T20:41:39.074Z,7.10
2023-01-30T20:44:08.454Z,7.10
2023-01-30T20:46:41.803Z,7.10
2023-01-30T20:49:20.952Z,7.10
2023-01-30T20:51:52.588Z,7.20
2023-01-30T20:54:21.692Z,7.20
2023-01-30T20:56:51.827Z,7.10
2023-01-30T20:59:24.008Z,7.20
2023-01-30T21:01:52.292Z,7.10
2023-01-30T21:04:20.925Z,7.10
2023-01-30T21:06:49.246Z,7.10
2023-01-30T21:09:20.829Z,7.10
2023-01-30T21:11:54.716Z,7.10
2023-01-30T21:14:22.694Z,7.00
2023-01-30T21:16:50.689Z,7.00
2023-01-30T21:19:18.028Z,7.00
2023-01-30T21:21:50.926Z,7.00
2023-01-30T21:24:23.925Z,7.00
2023-01-30T21:26:53.817Z,7.00
2023-01-30T21:29:23.299Z,6.90
2023-01-30T21:31:53.924Z,6.90
2023-01-30T21:34:21.154Z,6.90
2023-01-30T21:37:14.925Z,6.90
2023-01-30T21:40:17.474Z,6.90
2023-01-30T21:43:12.059Z,6.90
2023-01-30T21:45:39.213Z,6.90
2023-01-30T21:48:06.654Z,6.90
2023-01-30T21:50:34.067Z,6.90
2023-01-30T21:53:05.356Z,6.90
2023-01-30T21:55:32.629Z,6.90
2023-01-30T21:57:59.793Z,6.90
2023-01-30T22:00:26.719Z,6.90
2023-01-30T22:02:53.685Z,6.90
2023-01-30T22:05:21.069Z,6.90
2023-01-30T22:07:50.259Z,6.90
2023-01-30T22:10:17.402Z,6.90
2023-01-30T22:12:44.478Z,6.80
2023-01-30T22:15:11.523Z,6.90
2023-01-30T22:17:38.671Z,6.80
2023-01-30T22:20:06.103Z,6.80
2023-01-30T22:22:33.089Z,6.80
2023-01-30T22:25:00.124Z,6.80
2023-01-30T22:27:27.160Z,6.80
2023-01-30T22:29:54.190Z,6.80
2023-01-30T22:32:21.299Z,6.80
2023-01-30T22:34:48.390Z,6.80
2023-01-30T22:37:16.492Z,6.80
2023-01-30T22:39:43.493Z,6.80
2023-01-30T22:42:10.821Z,6.70
2023-01-30T22:44:39.734Z,6.70
2023-01-30T22:47:09.617Z,6.70
2023-01-30T22:49:37.021Z,6.70
2023-01-30T22:52:04.338Z,6.70
2023-01-30T22:54:34.541Z,6.70
2023-01-30T22:57:04.700Z,6.70
2023-01-30T22:59:32.032Z,6.70
2023-01-30T23:01:59.355Z,6.70
2023-01-30T23:04:26.582Z,6.70
2023-01-30T23:06:53.709Z,6.70
2023-01-30T23:09:23.291Z,6.70
2023-01-30T23:12:15.286Z,6.70
2023-01-30T23:14:43.070Z,6.70
2023-01-30T23:17:28.927Z,6.70
2023-01-30T23:19:56.291Z,6.70
2023-01-30T23:22:23.479Z,6.70
2023-01-30T23:24:51.440Z,6.80
2023-01-30T23:27:19.658Z,6.80
2023-01-30T23:29:46.874Z,6.80
2023-01-30T23:32:15.198Z,6.80
2023-01-30T23:34:45.142Z,6.80
2023-01-30T23:37:14.266Z,6.80
2023-01-30T23:39:44.574Z,6.80
2023-01-30T23:42:11.723Z,6.80
2023-01-30T23:44:38.867Z,6.80
2023-01-30T23:47:05.955Z,6.80
2023-01-30T23:49:32.987Z,6.90
2023-01-30T23:52:00.121Z,6.90
2023-01-30T23:54:31.537Z,6.90
2023-01-30T23:56:58.535Z,6.80
2023-01-30T23:59:25.576Z,6.90
